Time;durP1;ratioP1;P1;durP2;ratioP2;P2;SDS_P1;SDS_P2;PMS_P1;PMS_P2;Temp;Humidity;BMP_temperature;BMP_pressure;BME280_temperature;BME280_humidity;BME280_pressure;Samples;Min_cycle;Max_cycle;Signal;HPM_P1;HPM_P2
2021/03/31 00:00:57;;;;;;;9.90;9.00;;;;;21.20;101435.00;;;;2079376;28;20206;-46
2021/03/31 00:01:57;;;;;;;9.33;8.37;;;;;21.20;101429.00;;;;2074955;28;20294;-45
2021/03/31 00:02:58;;;;;;;9.20;8.30;;;;;21.20;101423.00;;;;2071859;28;20222;-45
2021/03/31 00:03:58;;;;;;;8.23;7.43;;;;;21.20;101433.00;;;;2069992;28;20282;-45
2021/03/31 00:04:59;;;;;;;9.17;8.27;;;;;21.20;101431.00;;;;2070284;28;20691;-45
2021/03/31 00:05:59;;;;;;;9.47;8.47;;;;;21.20;101431.00;;;;2070279;28;20330;-45
2021/03/31 00:06:59;;;;;;;8.60;7.80;;;;;21.20;101424.00;;;;2071063;28;20215;-45
2021/03/31 00:08:00;;;;;;;9.60;8.70;;;;;21.20;101431.00;;;;2070856;28;20210;-45
2021/03/31 00:09:00;;;;;;;8.70;7.90;;;;;21.20;101426.00;;;;2070967;28;20310;-45
2021/03/31 00:10:00;;;;;;;9.10;8.30;;;;;21.20;101422.00;;;;2070815;28;20591;-45
2021/03/31 00:11:01;;;;;;;10.00;9.10;;;;;21.20;101426.00;;;;2071863;28;20222;-45
2021/03/31 00:12:01;;;;;;;8.77;8.00;;;;;21.20;101428.00;;;;2075830;28;20214;-45
2021/03/31 00:13:03;;;;;;;9.17;8.27;;;;;21.20;101431.00;;;;2070338;28;20223;-45
2021/03/31 00:14:03;;;;;;;8.80;7.90;;;;;21.20;101428.00;;;;2070857;28;20296;-45
2021/03/31 00:15:04;;;;;;;8.77;7.93;;;;;21.20;101424.00;;;;2074816;28;20269;-44
2021/03/31 00:16:05;;;;;;;8.50;7.70;;;;;21.20;101422.00;;;;2070485;28;20222;-45
2021/03/31 00:17:05;;;;;;;8.63;7.83;;;;;21.20;101422.00;;;;2075501;28;21816;-45
2021/03/31 00:18:06;;;;;;;8.27;7.57;;;;;21.20;101424.00;;;;2079000;28;20309;-45
2021/03/31 00:19:07;;;;;;;7.53;6.85;;;;;21.20;101422.00;;;;2078976;28;20226;-44
2021/03/31 00:20:07;;;;;;;8.30;7.50;;;;;21.20;101423.00;;;;2076667;28;20222;-45
2021/03/31 00:21:08;;;;;;;8.20;7.40;;;;;21.20;101422.00;;;;2069924;28;20225;-45
2021/03/31 00:22:08;;;;;;;8.37;7.60;;;;;21.20;101408.00;;;;2069060;28;20893;-45
2021/03/31 00:23:14;;;;;;;8.23;7.53;;;;;21.20;101416.00;;;;2070995;28;20261;-45
2021/03/31 00:24:14;;;;;;;7.82;7.13;;;;;21.20;101412.00;;;;2071132;28;20308;-45
2021/03/31 00:25:15;;;;;;;7.60;6.97;;;;;21.20;101416.00;;;;2070262;28;20225;-45
2021/03/31 00:26:15;;;;;;;8.57;7.77;;;;;21.20;101398.00;;;;2069672;28;20215;-45
2021/03/31 00:27:16;;;;;;;8.23;7.43;;;;;21.20;101410.00;;;;2074466;28;20445;-45
2021/03/31 00:28:17;;;;;;;8.50;7.73;;;;;21.20;101407.00;;;;2078684;28;20202;-45
2021/03/31 00:29:18;;;;;;;8.10;7.30;;;;;21.20;101413.00;;;;2079062;28;20206;-46
2021/03/31 00:30:19;;;;;;;8.10;7.30;;;;;21.10;101398.00;;;;2073293;28;20330;-46
2021/03/31 00:31:19;;;;;;;7.50;6.83;;;;;21.20;101404.00;;;;2073051;28;20245;-46
2021/03/31 00:32:19;;;;;;;8.27;7.47;;;;;21.20;101401.00;;;;2070810;28;20207;-44
2021/03/31 00:33:20;;;;;;;8.00;7.30;;;;;21.20;101394.00;;;;2070965;28;20250;-45
2021/03/31 00:34:20;;;;;;;8.83;7.93;;;;;21.20;101386.00;;;;2074298;28;20210;-45
2021/03/31 00:35:21;;;;;;;8.23;7.43;;;;;21.20;101386.00;;;;2075321;28;20213;-45
2021/03/31 00:36:21;;;;;;;8.40;7.60;;;;;21.10;101323.00;;;;2078855;28;20812;-45
2021/03/31 00:37:21;;;;;;;8.17;7.47;;;;;21.10;101387.00;;;;2078812;28;20651;-45
2021/03/31 00:38:22;;;;;;;7.70;6.93;;;;;21.10;101387.00;;;;2078929;28;20236;-45
2021/03/31 00:39:22;;;;;;;7.90;7.20;;;;;21.20;101388.00;;;;2078937;28;20236;-46
2021/03/31 00:40:27;;;;;;;7.97;7.27;;;;;21.10;101386.00;;;;2078946;28;20209;-46
2021/03/31 00:41:27;;;;;;;8.60;7.80;;;;;21.10;101388.00;;;;2077826;28;20206;-45
2021/03/31 00:42:28;;;;;;;8.00;7.30;;;;;21.20;101384.00;;;;2078522;28;20301;-45
2021/03/31 00:43:28;;;;;;;7.47;6.77;;;;;21.10;101377.00;;;;2076815;28;20613;-45
2021/03/31 00:44:28;;;;;;;7.07;6.10;;;;;21.10;101383.00;;;;2070728;28;20214;-45
2021/03/31 00:45:29;;;;;;;7.80;7.07;;;;;21.10;101379.00;;;;2077941;28;20264;-45
2021/03/31 00:46:29;;;;;;;7.40;6.80;;;;;21.10;101383.00;;;;2078514;28;20226;-45
2021/03/31 00:47:29;;;;;;;8.13;7.33;;;;;21.10;101384.00;;;;2078798;28;20253;-45
2021/03/31 00:48:30;;;;;;;7.90;7.20;;;;;21.10;101379.00;;;;2077346;28;20210;-45
2021/03/31 00:49:31;;;;;;;7.87;7.17;;;;;21.10;101379.00;;;;2070661;28;20214;-45
2021/03/31 00:50:31;;;;;;;7.43;6.73;;;;;21.10;101382.00;;;;2070349;28;20207;-45
2021/03/31 00:51:31;;;;;;;7.50;6.80;;;;;21.10;101379.00;;;;2068588;28;20473;-45
2021/03/31 00:52:32;;;;;;;7.87;7.17;;;;;21.10;101371.00;;;;2077299;28;20217;-45
2021/03/31 00:53:41;;;;;;;6.90;6.30;;;;;21.10;101373.00;;;;2070079;28;20294;-45
2021/03/31 00:54:42;;;;;;;7.68;6.97;;;;;21.10;101370.00;;;;2078066;28;20225;-45
2021/03/31 00:55:42;;;;;;;7.30;6.60;;;;;21.10;101366.00;;;;2077877;28;20221;-45
2021/03/31 00:56:42;;;;;;;6.87;6.27;;;;;21.10;101364.00;;;;2069947;28;20219;-45
2021/03/31 00:57:43;;;;;;;7.73;7.03;;;;;21.10;101361.00;;;;2078102;28;21135;-45
2021/03/31 00:58:43;;;;;;;7.37;6.67;;;;;21.10;101371.00;;;;2078108;28;20576;-45
2021/03/31 00:59:44;;;;;;;7.83;7.23;;;;;21.10;101374.00;;;;2077450;28;20213;-45
2021/03/31 01:00:44;;;;;;;8.13;7.43;;;;;21.10;101361.00;;;;2077824;28;20222;-45
2021/03/31 01:01:45;;;;;;;7.13;6.43;;;;;21.10;101362.00;;;;2066150;28;20217;-45
2021/03/31 01:02:45;;;;;;;6.33;5.73;;;;;21.10;101359.00;;;;2072946;28;20213;-44
2021/03/31 01:03:45;;;;;;;6.97;6.27;;;;;21.10;101352.00;;;;2078462;28;20211;-45
2021/03/31 01:04:46;;;;;;;6.67;6.07;;;;;21.10;101358.00;;;;2071109;28;20215;-45
2021/03/31 01:05:46;;;;;;;7.63;6.93;;;;;21.10;101357.00;;;;2077102;28;20607;-45
2021/03/31 01:06:46;;;;;;;7.40;6.70;;;;;21.10;101350.00;;;;2063699;28;20227;-45
2021/03/31 01:07:47;;;;;;;7.63;6.93;;;;;21.10;101350.00;;;;2075313;28;20213;-45
2021/03/31 01:08:47;;;;;;;7.80;7.10;;;;;21.10;101349.00;;;;2073983;28;21048;-43
2021/03/31 01:09:48;;;;;;;6.90;6.30;;;;;21.10;101350.00;;;;2070369;28;20218;-46
2021/03/31 01:10:50;;;;;;;6.85;6.20;;;;;21.10;101349.00;;;;2069399;28;20651;-44
2021/03/31 01:12:27;;;;;;;6.70;6.10;;;;;21.10;101351.00;;;;2052476;28;20228;-44
2021/03/31 01:13:58;;;;;;;7.40;6.70;;;;;20.90;101339.00;;;;2062882;28;20215;-44
2021/03/31 01:15:11;;;;;;;6.70;6.10;;;;;21.10;101344.00;;;;2057390;28;20735;-45
2021/03/31 01:16:30;;;;;;;6.78;6.20;;;;;21.10;101344.00;;;;2065672;28;20302;-44
2021/03/31 01:17:42;;;;;;;7.55;6.85;;;;;21.10;101342.00;;;;2069772;28;20644;-44
2021/03/31 01:18:51;;;;;;;6.88;6.18;;;;;21.10;101336.00;;;;2069680;28;20215;-45
2021/03/31 01:20:22;;;;;;;7.63;6.72;;;;;21.10;101341.00;;;;2074908;28;20915;-43
2021/03/31 01:21:43;;;;;;;7.13;6.43;;;;;21.10;101335.00;;;;2074782;28;20330;-45
2021/03/31 01:23:22;;;;;;;6.70;5.68;;;;;20.90;101333.00;;;;2077201;28;20217;-44
2021/03/31 01:25:03;;;;;;;7.43;6.15;;;;;21.10;101331.00;;;;2077042;28;20565;-44
2021/03/31 01:26:07;;;;;;;6.78;5.82;;;;;21.10;101326.00;;;;2067557;28;20272;-44
2021/03/31 01:27:16;;;;;;;6.93;6.32;;;;;20.90;101335.00;;;;2069083;28;20580;-44
2021/03/31 01:28:30;;;;;;;7.70;6.35;;;;;21.00;101325.00;;;;2074218;28;20297;-43
2021/03/31 01:29:41;;;;;;;6.45;5.95;;;;;21.10;101316.00;;;;2063151;28;20217;-44
2021/03/31 01:31:00;;;;;;;7.78;6.63;;;;;21.10;101327.00;;;;2069241;28;20276;-45
2021/03/31 01:32:18;;;;;;;6.70;6.10;;;;;21.10;101322.00;;;;2073793;28;20301;-46
2021/03/31 01:33:49;;;;;;;6.72;6.00;;;;;21.10;101326.00;;;;2072468;28;20260;-44
2021/03/31 01:34:51;;;;;;;6.70;6.10;;;;;21.10;101327.00;;;;2069854;28;20881;-44
2021/03/31 01:35:52;;;;;;;7.05;6.35;;;;;21.10;101321.00;;;;2071149;28;20238;-44
2021/03/31 01:36:52;;;;;;;6.57;6.00;;;;;21.10;101321.00;;;;2077006;28;20222;-43
2021/03/31 01:37:59;;;;;;;6.60;6.00;;;;;21.10;101330.00;;;;2077628;28;21005;-44
2021/03/31 01:39:01;;;;;;;6.40;5.80;;;;;21.10;101316.00;;;;2068782;28;20297;-43
2021/03/31 01:40:03;;;;;;;6.13;5.63;;;;;21.10;101319.00;;;;2061804;28;20242;-44
2021/03/31 01:41:04;;;;;;;6.40;5.78;;;;;21.00;101309.00;;;;2061679;28;20219;-44
2021/03/31 01:42:05;;;;;;;6.20;5.60;;;;;21.00;101308.00;;;;2060204;28;20211;-44
2021/03/31 01:43:07;;;;;;;6.30;5.70;;;;;21.10;101311.00;;;;2045207;28;20223;-44
2021/03/31 01:44:08;;;;;;;6.50;5.90;;;;;21.10;101321.00;;;;2058283;28;20562;-43
2021/03/31 01:45:08;;;;;;;5.80;5.30;;;;;21.00;101328.00;;;;2058982;28;20214;-45
2021/03/31 01:46:09;;;;;;;6.20;5.70;;;;;21.00;101311.00;;;;2053522;28;20219;-43
2021/03/31 01:47:11;;;;;;;6.63;6.03;;;;;21.10;101317.00;;;;2053077;28;20315;-46
2021/03/31 01:48:12;;;;;;;6.05;5.55;;;;;21.00;101314.00;;;;2061911;28;20580;-44
2021/03/31 01:49:12;;;;;;;5.87;5.37;;;;;21.00;101308.00;;;;2077618;28;20213;-43
2021/03/31 01:50:13;;;;;;;6.40;5.90;;;;;21.10;101315.00;;;;2069583;28;20540;-44
2021/03/31 01:51:13;;;;;;;5.80;5.30;;;;;21.00;101318.00;;;;2069451;28;20675;-45
2021/03/31 01:52:14;;;;;;;5.33;4.93;;;;;21.10;101313.00;;;;2070340;28;20603;-45
2021/03/31 01:53:14;;;;;;;6.03;5.53;;;;;21.00;101309.00;;;;2069453;28;20215;-44
2021/03/31 01:54:15;;;;;;;6.60;6.00;;;;;21.00;101313.00;;;;2068282;28;20221;-44
2021/03/31 01:55:15;;;;;;;6.10;5.50;;;;;21.00;101306.00;;;;2077357;28;20213;-44
2021/03/31 01:56:16;;;;;;;6.20;5.60;;;;;21.00;101315.00;;;;2069457;28;20254;-46
2021/03/31 01:57:16;;;;;;;6.00;5.40;;;;;21.00;101314.00;;;;2069497;28;20265;-43
2021/03/31 01:58:17;;;;;;;6.20;5.60;;;;;21.00;101306.00;;;;2069453;28;21120;-43
2021/03/31 01:59:18;;;;;;;6.23;5.63;;;;;21.00;101307.00;;;;2069556;28;20746;-44
2021/03/31 02:00:19;;;;;;;6.07;5.43;;;;;21.00;101308.00;;;;2061622;28;20463;-44
2021/03/31 02:01:19;;;;;;;5.90;5.40;;;;;21.00;101321.00;;;;2070577;28;20302;-43
2021/03/31 02:02:21;;;;;;;6.20;5.60;;;;;21.00;101302.00;;;;2067845;28;20242;-46
2021/03/31 02:03:22;;;;;;;5.78;5.30;;;;;21.10;101306.00;;;;2063935;28;20238;-43
2021/03/31 02:04:23;;;;;;;6.00;5.47;;;;;21.00;101304.00;;;;2071925;28;20214;-43
2021/03/31 02:05:23;;;;;;;5.90;5.40;;;;;21.00;101299.00;;;;2068024;28;20264;-45
2021/03/31 02:06:26;;;;;;;6.40;5.80;;;;;21.00;101306.00;;;;2068966;28;20277;-44
2021/03/31 02:07:27;;;;;;;6.35;5.75;;;;;21.00;101295.00;;;;2068913;28;20221;-44
2021/03/31 02:08:27;;;;;;;6.00;5.40;;;;;21.00;101290.00;;;;2047616;28;20639;-43
2021/03/31 02:09:28;;;;;;;5.60;5.10;;;;;21.00;101290.00;;;;2061262;28;20648;-44
2021/03/31 02:10:28;;;;;;;5.60;5.10;;;;;21.00;101295.00;;;;2069259;28;20223;-46
2021/03/31 02:11:28;;;;;;;5.90;5.37;;;;;21.00;101284.00;;;;2051218;28;20220;-44
2021/03/31 02:12:29;;;;;;;6.27;5.67;;;;;21.00;101295.00;;;;2053181;28;20631;-45
2021/03/31 02:13:29;;;;;;;5.53;5.13;;;;;21.00;101299.00;;;;2069504;28;20292;-45
2021/03/31 02:14:30;;;;;;;5.30;4.80;;;;;21.00;101281.00;;;;2069188;28;20218;-44
2021/03/31 02:15:31;;;;;;;5.70;5.20;;;;;21.00;101302.00;;;;2069296;28;20218;-44
2021/03/31 02:16:32;;;;;;;6.37;5.80;;;;;21.00;101290.00;;;;2058177;28;20258;-44
2021/03/31 02:17:32;;;;;;;5.60;5.10;;;;;21.00;101278.00;;;;2054529;28;20212;-44
2021/03/31 02:18:33;;;;;;;5.70;5.20;;;;;21.00;101298.00;;;;2059848;28;20704;-45
2021/03/31 02:19:34;;;;;;;4.93;4.43;;;;;21.00;101294.00;;;;2061152;28;20207;-44
2021/03/31 02:20:34;;;;;;;6.97;5.22;;;;;21.00;101279.00;;;;2072706;28;20281;-45
2021/03/31 02:21:35;;;;;;;5.87;5.20;;;;;21.00;101291.00;;;;2068014;28;20711;-44
2021/03/31 02:22:35;;;;;;;6.07;5.57;;;;;21.00;101301.00;;;;2060959;28;20228;-43
2021/03/31 02:23:35;;;;;;;5.40;4.90;;;;;21.00;101290.00;;;;2069287;28;20207;-45
2021/03/31 02:24:36;;;;;;;5.97;5.37;;;;;21.00;101291.00;;;;2070256;28;20683;-44
2021/03/31 02:25:36;;;;;;;5.60;5.03;;;;;21.00;101291.00;;;;2069114;28;20246;-44
2021/03/31 02:26:36;;;;;;;5.50;5.00;;;;;21.00;101275.00;;;;2069884;28;21345;-46
2021/03/31 02:27:37;;;;;;;5.73;5.23;;;;;21.00;101289.00;;;;2077389;28;20210;-45
2021/03/31 02:28:37;;;;;;;6.00;5.47;;;;;21.00;101276.00;;;;2073888;28;20289;-45
2021/03/31 02:29:39;;;;;;;5.67;5.17;;;;;21.00;101288.00;;;;2069394;28;21017;-46
2021/03/31 02:30:39;;;;;;;5.15;4.75;;;;;21.00;101292.00;;;;2061519;28;20219;-46
2021/03/31 02:31:40;;;;;;;5.60;5.10;;;;;21.00;101285.00;;;;2061705;28;20261;-43
2021/03/31 02:32:42;;;;;;;5.40;4.90;;;;;21.00;101288.00;;;;2065513;28;20882;-44
2021/03/31 02:33:44;;;;;;;5.78;5.28;;;;;21.00;101286.00;;;;2067891;28;20352;-43
2021/03/31 02:34:44;;;;;;;4.90;4.50;;;;;21.00;101279.00;;;;2067281;28;20219;-43
2021/03/31 02:35:44;;;;;;;5.03;4.63;;;;;20.80;101282.00;;;;2069228;28;20218;-44
2021/03/31 02:36:45;;;;;;;5.57;5.07;;;;;21.00;101282.00;;;;2075810;28;20209;-45
2021/03/31 02:37:45;;;;;;;4.90;4.50;;;;;21.00;101279.00;;;;2073197;28;20298;-45
2021/03/31 02:38:46;;;;;;;4.60;4.20;;;;;21.00;101277.00;;;;2060992;28;20211;-44
2021/03/31 02:39:47;;;;;;;4.95;4.55;;;;;21.00;101276.00;;;;2069229;28;20219;-44
2021/03/31 02:40:48;;;;;;;5.80;5.40;;;;;21.00;101271.00;;;;2063526;28;20707;-46
2021/03/31 02:41:51;;;;;;;5.30;4.80;;;;;21.00;101284.00;;;;2076535;28;20218;-45
2021/03/31 02:42:52;;;;;;;5.60;5.10;;;;;21.00;101272.00;;;;2077433;28;20226;-44
2021/03/31 02:43:52;;;;;;;5.32;4.82;;;;;21.00;101274.00;;;;2069238;28;20206;-44
2021/03/31 02:44:54;;;;;;;5.50;5.00;;;;;21.00;101270.00;;;;2068174;28;20222;-43
2021/03/31 02:45:54;;;;;;;4.70;4.30;;;;;21.00;101273.00;;;;2061286;28;20228;-42
2021/03/31 02:46:55;;;;;;;5.47;5.07;;;;;21.00;101262.00;;;;2061097;28;21170;-48
2021/03/31 02:47:57;;;;;;;5.13;4.63;;;;;21.00;101274.00;;;;2068940;28;20727;-46
2021/03/31 02:48:57;;;;;;;5.07;4.65;;;;;21.00;101273.00;;;;2069413;28;20318;-47
2021/03/31 02:49:58;;;;;;;5.40;5.00;;;;;21.00;101272.00;;;;2061212;28;20235;-43
2021/03/31 02:50:59;;;;;;;5.57;5.07;;;;;21.00;101269.00;;;;2061134;28;20223;-44
2021/03/31 02:51:59;;;;;;;4.63;4.23;;;;;21.00;101272.00;;;;2067985;28;20219;-46
2021/03/31 02:52:59;;;;;;;5.17;4.73;;;;;21.00;101268.00;;;;2061146;28;20258;-45
2021/03/31 02:54:00;;;;;;;5.03;4.63;;;;;21.00;101267.00;;;;2061306;28;20211;-45
2021/03/31 02:55:01;;;;;;;4.82;4.43;;;;;21.00;101270.00;;;;2076723;28;20261;-46
2021/03/31 02:56:03;;;;;;;4.97;4.57;;;;;21.00;101267.00;;;;2073686;28;20569;-44
2021/03/31 02:57:04;;;;;;;4.72;4.32;;;;;21.00;101258.00;;;;2069634;28;20588;-45
2021/03/31 02:58:04;;;;;;;4.70;4.30;;;;;21.00;101261.00;;;;2070032;28;20627;-44
2021/03/31 02:59:04;;;;;;;4.60;4.07;;;;;21.00;101260.00;;;;2063339;28;21157;-44
2021/03/31 03:00:09;;;;;;;4.80;4.30;;;;;21.00;101259.00;;;;2069183;28;20226;-44
2021/03/31 03:01:09;;;;;;;4.97;4.57;;;;;21.00;101257.00;;;;2077470;28;20209;-44
2021/03/31 03:02:09;;;;;;;5.00;4.60;;;;;21.00;101259.00;;;;2071380;28;20214;-46
2021/03/31 03:03:10;;;;;;;4.47;4.07;;;;;21.00;101260.00;;;;2070652;28;20583;-44
2021/03/31 03:04:10;;;;;;;4.60;4.20;;;;;21.00;101255.00;;;;2061627;28;20215;-43
2021/03/31 03:05:12;;;;;;;4.40;4.10;;;;;21.00;101267.00;;;;2060255;28;20223;-43
2021/03/31 03:06:12;;;;;;;4.50;4.10;;;;;20.90;101254.00;;;;2068769;28;20595;-44
2021/03/31 03:07:12;;;;;;;4.60;4.20;;;;;21.00;101266.00;;;;2068576;28;20230;-44
2021/03/31 03:08:13;;;;;;;5.07;4.60;;;;;21.00;101267.00;;;;2061092;28;20211;-44
2021/03/31 03:09:13;;;;;;;4.07;3.77;;;;;21.00;101260.00;;;;2061124;28;20373;-43
2021/03/31 03:10:14;;;;;;;4.53;4.13;;;;;21.00;101255.00;;;;2069099;28;20269;-45
2021/03/31 03:11:14;;;;;;;4.87;4.43;;;;;21.00;101260.00;;;;2061053;28;20780;-44
2021/03/31 03:12:15;;;;;;;5.17;4.77;;;;;21.00;101260.00;;;;2059745;28;20219;-44
2021/03/31 03:13:21;;;;;;;4.75;4.35;;;;;21.00;101256.00;;;;2068216;28;20760;-43
2021/03/31 03:14:21;;;;;;;4.55;4.15;;;;;20.90;101254.00;;;;2053979;28;20784;-44
2021/03/31 03:15:24;;;;;;;4.70;4.30;;;;;20.90;101256.00;;;;2058383;28;20219;-46
2021/03/31 03:16:24;;;;;;;4.32;3.95;;;;;21.00;101259.00;;;;2062719;28;20270;-46
2021/03/31 03:17:24;;;;;;;4.57;4.17;;;;;21.00;101253.00;;;;2067481;28;20373;-44
2021/03/31 03:18:25;;;;;;;4.43;4.10;;;;;21.00;101254.00;;;;2069195;28;20206;-44
2021/03/31 03:19:25;;;;;;;4.60;4.20;;;;;21.00;101255.00;;;;2077203;28;20801;-43
2021/03/31 03:20:25;;;;;;;4.57;4.20;;;;;20.90;101247.00;;;;2064102;28;20227;-44
2021/03/31 03:21:29;;;;;;;4.37;3.97;;;;;20.90;101248.00;;;;2072684;28;20269;-46
2021/03/31 03:22:29;;;;;;;4.70;4.30;;;;;21.00;101245.00;;;;2077761;28;20210;-44
2021/03/31 03:23:30;;;;;;;4.37;3.97;;;;;20.90;101250.00;;;;2070252;28;20564;-43
2021/03/31 03:24:30;;;;;;;4.35;3.95;;;;;20.90;101249.00;;;;2069975;28;20226;-44
2021/03/31 03:25:31;;;;;;;4.57;4.17;;;;;20.90;101250.00;;;;2070586;28;20285;-46
2021/03/31 03:26:31;;;;;;;4.63;4.23;;;;;20.90;101248.00;;;;2062233;28;20307;-43
2021/03/31 03:27:31;;;;;;;4.07;3.73;;;;;20.90;101247.00;;;;2070066;28;20215;-43
2021/03/31 03:28:32;;;;;;;4.40;4.00;;;;;20.90;101245.00;;;;2069777;28;20226;-44
2021/03/31 03:29:32;;;;;;;5.07;3.97;;;;;21.00;101249.00;;;;2062207;28;20223;-46
2021/03/31 03:30:33;;;;;;;4.17;3.77;;;;;20.90;101252.00;;;;2070364;28;20228;-45
2021/03/31 03:31:33;;;;;;;3.97;3.57;;;;;20.90;101254.00;;;;2063767;28;20218;-44
2021/03/31 03:32:34;;;;;;;4.17;3.87;;;;;20.90;101242.00;;;;2074035;28;20607;-43
2021/03/31 03:33:34;;;;;;;3.97;3.67;;;;;20.90;101249.00;;;;2072101;28;20225;-44
2021/03/31 03:34:35;;;;;;;4.20;3.83;;;;;20.90;101246.00;;;;2072527;28;20721;-44
2021/03/31 03:35:35;;;;;;;4.07;3.67;;;;;20.90;101237.00;;;;2068316;28;20226;-43
2021/03/31 03:36:45;;;;;;;4.00;3.70;;;;;20.90;101243.00;;;;2069257;28;20215;-43
2021/03/31 03:37:46;;;;;;;4.93;4.50;;;;;20.90;101243.00;;;;2070006;28;20273;-44
2021/03/31 03:38:47;;;;;;;3.67;3.38;;;;;20.90;101241.00;;;;2072289;28;20207;-44
2021/03/31 03:39:48;;;;;;;4.27;3.87;;;;;20.90;101241.00;;;;2078321;28;20304;-45
2021/03/31 03:40:48;;;;;;;4.03;3.73;;;;;20.90;101236.00;;;;2078515;28;20214;-44
2021/03/31 03:41:48;;;;;;;4.50;3.73;;;;;20.90;101256.00;;;;2077340;28;20217;-44
2021/03/31 03:42:49;;;;;;;3.70;3.40;;;;;20.90;101234.00;;;;2078982;28;20206;-46
2021/03/31 03:43:53;;;;;;;4.00;3.70;;;;;20.90;101238.00;;;;2078271;28;20301;-44
2021/03/31 03:44:54;;;;;;;3.80;3.50;;;;;20.90;101235.00;;;;2070661;28;20289;-43
2021/03/31 03:45:54;;;;;;;4.43;3.50;;;;;20.90;101234.00;;;;2078424;28;20588;-44
2021/03/31 03:46:55;;;;;;;4.63;3.90;;;;;20.90;101229.00;;;;2070219;28;20234;-43
2021/03/31 03:47:55;;;;;;;4.17;3.70;;;;;20.90;101232.00;;;;2070147;28;20746;-43
2021/03/31 03:48:57;;;;;;;4.30;4.00;;;;;20.90;101235.00;;;;2071284;28;20450;-43
2021/03/31 03:49:59;;;;;;;3.80;3.50;;;;;20.80;101228.00;;;;2070646;28;20576;-45
2021/03/31 03:50:59;;;;;;;4.10;3.72;;;;;20.90;101223.00;;;;2070725;28;20314;-43
2021/03/31 03:51:59;;;;;;;4.03;3.67;;;;;20.90;101227.00;;;;2059537;28;20215;-44
2021/03/31 03:53:00;;;;;;;3.87;3.53;;;;;20.90;101234.00;;;;2054305;28;20224;-45
2021/03/31 03:54:00;;;;;;;3.73;3.43;;;;;20.90;101238.00;;;;2054019;28;20244;-43
2021/03/31 03:55:00;;;;;;;3.80;3.40;;;;;20.90;101234.00;;;;2053745;28;20275;-43
2021/03/31 03:56:02;;;;;;;3.83;3.43;;;;;20.90;101235.00;;;;2062083;28;20234;-46
2021/03/31 03:57:02;;;;;;;3.85;3.55;;;;;20.90;101234.00;;;;2070094;28;20727;-44
2021/03/31 03:58:05;;;;;;;3.60;3.27;;;;;20.90;101232.00;;;;2061919;28;20315;-43
2021/03/31 03:59:21;;;;;;;3.72;3.42;;;;;20.90;101175.00;;;;2062065;28;20219;-43
2021/03/31 04:00:23;;;;;;;3.50;3.20;;;;;20.90;101234.00;;;;2077087;28;20237;-45
2021/03/31 04:01:24;;;;;;;3.60;3.30;;;;;20.90;101244.00;;;;2078455;28;20241;-46
2021/03/31 04:02:24;;;;;;;3.40;3.10;;;;;20.90;101232.00;;;;2070535;28;20203;-45
2021/03/31 04:03:25;;;;;;;3.43;3.23;;;;;20.90;101235.00;;;;2074427;28;20211;-44
2021/03/31 04:04:25;;;;;;;3.80;3.50;;;;;20.90;101232.00;;;;2079175;28;20306;-43
2021/03/31 04:05:26;;;;;;;3.67;3.37;;;;;20.90;101238.00;;;;2069803;28;20222;-44
2021/03/31 04:06:26;;;;;;;3.83;3.53;;;;;20.90;101236.00;;;;2069888;28;20263;-44
2021/03/31 04:07:26;;;;;;;4.00;3.70;;;;;20.90;101238.00;;;;2079949;28;20206;-44
2021/03/31 04:08:26;;;;;;;4.40;3.90;;;;;20.90;101234.00;;;;2071700;28;20362;-46
2021/03/31 04:09:27;;;;;;;3.83;3.43;;;;;20.90;101234.00;;;;2071121;28;20214;-44
2021/03/31 04:10:28;;;;;;;3.90;3.60;;;;;20.90;101222.00;;;;2078829;28;20614;-44
2021/03/31 04:11:28;;;;;;;4.07;3.77;;;;;20.90;101235.00;;;;2075430;28;20241;-46
2021/03/31 04:12:29;;;;;;;3.60;3.30;;;;;20.90;101236.00;;;;2070009;28;20454;-45
2021/03/31 04:13:30;;;;;;;5.60;3.77;;;;;20.90;101235.00;;;;2069892;28;20207;-44
2021/03/31 04:14:30;;;;;;;3.87;3.57;;;;;20.90;101231.00;;;;2062439;28;20219;-44
2021/03/31 04:15:30;;;;;;;3.80;3.50;;;;;20.90;101225.00;;;;2062270;28;20460;-44
2021/03/31 04:16:31;;;;;;;3.37;3.10;;;;;20.90;101234.00;;;;2070054;28;20202;-45
2021/03/31 04:17:31;;;;;;;3.97;3.57;;;;;20.90;101236.00;;;;2078228;28;20781;-44
2021/03/31 04:18:32;;;;;;;4.00;3.70;;;;;20.90;101235.00;;;;2076583;28;20301;-47
2021/03/31 04:19:32;;;;;;;4.43;4.03;;;;;20.90;101232.00;;;;2069451;28;20214;-44
2021/03/31 04:20:33;;;;;;;3.80;3.50;;;;;20.90;101227.00;;;;2062049;28;20290;-45
2021/03/31 04:21:34;;;;;;;4.27;3.87;;;;;20.90;101230.00;;;;2068186;28;20695;-46
2021/03/31 04:22:34;;;;;;;3.60;3.30;;;;;20.90;101220.00;;;;2075250;28;20232;-43
2021/03/31 04:23:35;;;;;;;3.33;3.03;;;;;20.90;101221.00;;;;2069987;28;20313;-44
2021/03/31 04:24:35;;;;;;;3.63;3.33;;;;;20.90;101225.00;;;;2070061;28;20293;-43
2021/03/31 04:25:35;;;;;;;3.23;3.03;;;;;20.90;101221.00;;;;2078341;28;20292;-43
2021/03/31 04:26:36;;;;;;;5.20;3.60;;;;;20.90;101230.00;;;;2078197;28;20252;-44
2021/03/31 04:27:36;;;;;;;3.90;3.33;;;;;20.90;101226.00;;;;2069915;28;20238;-44
2021/03/31 04:28:37;;;;;;;3.63;3.13;;;;;20.80;101222.00;;;;2069442;28;20217;-44
2021/03/31 04:29:41;;;;;;;3.63;3.33;;;;;20.90;101217.00;;;;2069981;28;20207;-44
2021/03/31 04:30:41;;;;;;;3.78;3.20;;;;;20.90;101219.00;;;;2069835;28;21276;-43
2021/03/31 04:31:42;;;;;;;3.70;3.33;;;;;20.90;101227.00;;;;2064634;28;20310;-43
2021/03/31 04:32:44;;;;;;;4.07;3.63;;;;;20.90;101211.00;;;;2061822;28;20222;-45
2021/03/31 04:33:45;;;;;;;3.35;3.05;;;;;20.90;101223.00;;;;2069169;28;20761;-44
2021/03/31 04:34:45;;;;;;;3.30;3.10;;;;;20.80;101215.00;;;;2062231;28;20219;-46
2021/03/31 04:35:45;;;;;;;3.40;3.10;;;;;20.80;101212.00;;;;2076566;28;20531;-44
2021/03/31 04:36:46;;;;;;;3.77;3.47;;;;;20.90;101216.00;;;;2061892;28;20219;-43
2021/03/31 04:37:46;;;;;;;3.10;2.90;;;;;20.90;101216.00;;;;2053698;28;20219;-44
2021/03/31 04:38:48;;;;;;;3.20;2.90;;;;;20.80;101219.00;;;;2068795;28;20223;-44
2021/03/31 04:39:48;;;;;;;3.55;3.25;;;;;20.80;101212.00;;;;2078494;28;20871;-46
2021/03/31 04:40:56;;;;;;;3.90;3.50;;;;;20.90;101214.00;;;;2078741;28;20284;-46
2021/03/31 04:41:57;;;;;;;3.30;3.00;;;;;20.80;101218.00;;;;2077050;28;20222;-45
2021/03/31 04:42:57;;;;;;;3.20;2.90;;;;;20.80;101214.00;;;;2079191;28;20253;-46
2021/03/31 04:43:57;;;;;;;3.50;3.20;;;;;20.90;101223.00;;;;2077650;28;20301;-44
2021/03/31 04:44:58;;;;;;;3.40;3.20;;;;;20.80;101214.00;;;;2078560;28;20218;-44
2021/03/31 04:45:58;;;;;;;3.50;3.20;;;;;20.80;101236.00;;;;2078543;28;20277;-44
2021/03/31 04:47:03;;;;;;;3.03;2.80;;;;;20.80;101215.00;;;;2078811;28;20312;-45
2021/03/31 04:48:03;;;;;;;3.63;3.20;;;;;20.80;101215.00;;;;2078409;28;20536;-45
2021/03/31 04:49:04;;;;;;;3.40;3.20;;;;;20.80;101157.00;;;;2078493;28;20638;-45
2021/03/31 04:50:09;;;;;;;3.30;3.10;;;;;20.80;101216.00;;;;2078706;28;20970;-45
2021/03/31 04:51:09;;;;;;;3.00;2.80;;;;;20.80;101208.00;;;;2078529;28;20214;-44
2021/03/31 04:52:09;;;;;;;3.30;3.00;;;;;20.80;101215.00;;;;2077653;28;20209;-45
2021/03/31 04:53:10;;;;;;;3.07;2.77;;;;;20.80;101209.00;;;;2072405;28;20334;-45
2021/03/31 04:54:10;;;;;;;3.13;2.93;;;;;20.80;101212.00;;;;2070253;28;20213;-45
2021/03/31 04:55:12;;;;;;;3.50;3.20;;;;;20.80;101217.00;;;;2070247;28;20620;-45
2021/03/31 04:56:12;;;;;;;3.70;3.40;;;;;20.80;101208.00;;;;2074211;28;20302;-46
2021/03/31 04:57:14;;;;;;;3.20;2.90;;;;;20.80;101209.00;;;;2078641;28;20268;-46
2021/03/31 04:58:14;;;;;;;2.80;2.60;;;;;20.80;101202.00;;;;2078473;28;20218;-45
2021/03/31 04:59:14;;;;;;;3.73;2.90;;;;;20.80;101203.00;;;;2072614;28;20234;-45
2021/03/31 05:00:15;;;;;;;4.00;3.70;;;;;20.80;101212.00;;;;2070440;28;20817;-45
2021/03/31 05:01:16;;;;;;;3.37;3.07;;;;;20.80;101204.00;;;;2070570;28;20218;-45
2021/03/31 05:02:16;;;;;;;3.23;2.93;;;;;20.80;101207.00;;;;2071257;28;20508;-45
2021/03/31 05:03:17;;;;;;;2.97;2.77;;;;;20.80;101207.00;;;;2072831;28;20774;-45
2021/03/31 05:04:17;;;;;;;3.50;3.20;;;;;20.80;101208.00;;;;2071479;28;20222;-44
2021/03/31 05:05:17;;;;;;;3.40;2.97;;;;;20.80;101207.00;;;;2069745;28;20583;-45
2021/03/31 05:06:18;;;;;;;3.47;3.17;;;;;20.80;101210.00;;;;2069075;28;20723;-46
2021/03/31 05:07:18;;;;;;;3.47;3.17;;;;;20.80;101227.00;;;;2071132;28;20221;-45